createdAt,value
2018-09-26T00:02:08.045Z,76.38
2018-09-26T00:04:40.117Z,76.27
2018-09-26T00:07:08.352Z,76.54
2018-09-26T00:09:36.793Z,77.21
2018-09-26T00:12:05.019Z,77.56
2018-09-26T00:14:33.258Z,76.91
2018-09-26T00:17:01.577Z,77.49
2018-09-26T00:19:29.795Z,77.52
2018-09-26T00:21:58.157Z,78.24
2018-09-26T00:24:26.407Z,77.50
2018-09-26T00:26:54.675Z,77.39
2018-09-26T00:29:22.922Z,77.85
2018-09-26T00:31:51.359Z,77.98
2018-09-26T00:34:19.485Z,77.64
2018-09-26T00:36:47.673Z,78.06
2018-09-26T00:39:15.877Z,77.46
2018-09-26T00:41:44.073Z,77.93
2018-09-26T00:44:12.252Z,77.06
2018-09-26T00:46:40.375Z,78.15
2018-09-26T00:49:08.676Z,78.19
2018-09-26T00:51:36.980Z,77.49
2018-09-26T00:54:05.171Z,77.84
2018-09-26T00:56:33.325Z,78.47
2018-09-26T00:59:01.551Z,79.22
2018-09-26T01:01:29.836Z,79.63
2018-09-26T01:03:57.993Z,79.89
2018-09-26T01:06:26.219Z,79.42
2018-09-26T01:08:54.390Z,79.28
2018-09-26T01:11:22.667Z,79.09
2018-09-26T01:13:50.821Z,79.94
2018-09-26T01:16:19.056Z,80.79
2018-09-26T01:18:47.333Z,80.19
2018-09-26T01:21:15.593Z,79.09
2018-09-26T01:23:43.954Z,79.90
2018-09-26T01:26:12.238Z,80.45
2018-09-26T01:28:40.440Z,80.65
2018-09-26T01:31:08.847Z,79.85
2018-09-26T01:33:37.033Z,81.66
2018-09-26T01:36:05.239Z,81.08
2018-09-26T01:38:33.598Z,80.25
2018-09-26T01:41:01.957Z,80.59
2018-09-26T01:43:30.273Z,81.03
2018-09-26T01:45:58.528Z,80.65
2018-09-26T01:48:26.833Z,80.37
2018-09-26T01:50:55.478Z,81.31
2018-09-26T01:53:23.743Z,81.34
2018-09-26T01:55:51.969Z,82.09
2018-09-26T01:58:20.307Z,81.44
2018-09-26T02:00:48.530Z,82.69
2018-09-26T02:03:17.811Z,82.47
2018-09-26T02:05:46.043Z,81.97
2018-09-26T02:08:14.365Z,81.52
2018-09-26T02:10:42.731Z,82.69
2018-09-26T02:13:10.962Z,82.23
2018-09-26T02:15:39.225Z,82.18
2018-09-26T02:18:07.572Z,81.99
2018-09-26T02:20:35.814Z,82.21
2018-09-26T02:23:04.145Z,82.25
2018-09-26T02:25:32.447Z,82.24
2018-09-26T02:28:00.657Z,82.25
2018-09-26T02:30:28.879Z,82.67
2018-09-26T02:32:57.134Z,83.32
2018-09-26T02:35:25.403Z,83.60
2018-09-26T02:37:53.636Z,82.93
2018-09-26T02:40:21.945Z,83.35
2018-09-26T02:42:50.269Z,82.99
2018-09-26T02:45:18.558Z,83.67
2018-09-26T02:47:46.881Z,83.35
2018-09-26T02:50:15.098Z,83.20
2018-09-26T02:52:43.209Z,84.21
2018-09-26T02:55:11.345Z,83.61
2018-09-26T02:57:39.468Z,84.53
2018-09-26T03:00:07.716Z,83.96
2018-09-26T03:02:35.865Z,84.26
2018-09-26T03:05:04.009Z,83.85
2018-09-26T03:07:32.082Z,83.87
2018-09-26T03:10:00.317Z,84.12
2018-09-26T03:12:28.458Z,84.35
2018-09-26T03:14:56.603Z,84.56
2018-09-26T03:17:24.751Z,84.73
2018-09-26T03:19:52.853Z,84.53
2018-09-26T03:22:21.013Z,83.95
2018-09-26T03:24:49.151Z,84.76
2018-09-26T03:27:17.290Z,84.14
2018-09-26T03:29:45.448Z,84.29
2018-09-26T03:32:13.583Z,85.02
2018-09-26T03:34:41.785Z,84.34
2018-09-26T03:37:10.290Z,84.78
2018-09-26T03:39:38.717Z,85.16
2018-09-26T03:42:07.149Z,85.55
2018-09-26T03:44:35.599Z,85.49
2018-09-26T03:47:03.824Z,85.23
2018-09-26T03:49:32.124Z,85.32
2018-09-26T03:52:00.415Z,85.52
2018-09-26T03:54:28.656Z,85.49
2018-09-26T03:56:56.919Z,85.62
2018-09-26T03:59:25.135Z,86.11
2018-09-26T04:01:53.490Z,85.88
2018-09-26T04:04:21.824Z,86.02
2018-09-26T04:06:50.156Z,86.37
2018-09-26T04:09:18.595Z,85.57
2018-09-26T04:11:46.950Z,85.39
2018-09-26T04:14:15.220Z,86.90
2018-09-26T04:16:43.507Z,86.29
2018-09-26T04:19:11.774Z,86.08
2018-09-26T04:21:40.176Z,85.85
2018-09-26T04:24:08.580Z,86.60
2018-09-26T04:26:37.049Z,85.46
2018-09-26T04:29:05.277Z,85.71
2018-09-26T04:31:33.588Z,85.85
2018-09-26T04:34:01.793Z,85.70
2018-09-26T04:36:30.057Z,85.49
2018-09-26T04:38:58.616Z,85.55
2018-09-26T04:41:26.717Z,84.34
2018-09-26T04:43:55.192Z,85.02
2018-09-26T04:46:23.522Z,85.31
2018-09-26T04:48:52.005Z,84.81
2018-09-26T04:51:20.318Z,84.39
2018-09-26T04:53:48.857Z,84.38
2018-09-26T04:56:17.479Z,84.67
2018-09-26T04:58:45.809Z,84.68
2018-09-26T05:01:14.208Z,84.16
2018-09-26T05:03:42.751Z,84.31
2018-09-26T05:06:11.226Z,84.22
2018-09-26T05:08:39.676Z,82.00
2018-09-26T05:11:08.244Z,79.61
2018-09-26T05:13:36.733Z,75.21
2018-09-26T05:16:05.131Z,71.62
2018-09-26T05:18:33.556Z,70.23
2018-09-26T05:21:02.000Z,68.99
2018-09-26T05:23:30.263Z,66.68
2018-09-26T05:25:58.634Z,65.00
2018-09-26T05:28:27.025Z,62.21
2018-09-26T05:30:55.465Z,62.79
2018-09-26T05:33:24.002Z,61.75
2018-09-26T05:35:52.553Z,60.56
2018-09-26T05:38:20.849Z,61.34
2018-09-26T05:40:49.594Z,61.38
2018-09-26T05:43:18.131Z,61.41
2018-09-26T05:45:46.577Z,60.55
2018-09-26T05:48:15.102Z,60.19
2018-09-26T05:50:43.711Z,58.92
2018-09-26T05:53:12.737Z,59.66
2018-09-26T05:55:41.247Z,59.88
2018-09-26T05:58:09.574Z,59.14
2018-09-26T06:00:37.916Z,59.98
2018-09-26T06:03:06.082Z,58.21
2018-09-26T06:05:34.267Z,58.75
2018-09-26T06:08:02.650Z,57.61
2018-09-26T06:10:30.847Z,57.30
2018-09-26T06:12:59.171Z,57.83
2018-09-26T06:15:27.422Z,56.70
2018-09-26T06:17:55.659Z,57.37
2018-09-26T06:20:23.922Z,56.12
2018-09-26T06:22:52.072Z,57.61
2018-09-26T06:25:20.261Z,57.96
2018-09-26T06:27:48.516Z,58.54
2018-09-26T06:30:16.776Z,58.45
2018-09-26T06:32:44.968Z,57.71
2018-09-26T06:35:13.346Z,57.62
2018-09-26T06:37:41.643Z,57.19
2018-09-26T06:40:09.871Z,55.67
2018-09-26T06:42:38.047Z,55.32
2018-09-26T06:45:06.928Z,55.08
2018-09-26T06:47:35.164Z,55.43
2018-09-26T06:50:03.345Z,54.02
2018-09-26T06:52:31.586Z,54.10
2018-09-26T06:54:59.817Z,54.14
2018-09-26T06:57:27.972Z,52.77
2018-09-26T06:59:56.209Z,54.22
2018-09-26T07:02:24.355Z,52.60
2018-09-26T07:04:52.498Z,52.96
2018-09-26T07:07:20.738Z,50.89
2018-09-26T07:09:48.995Z,52.72
2018-09-26T07:12:17.164Z,52.48
2018-09-26T07:14:45.460Z,51.85
2018-09-26T07:17:13.732Z,51.12
2018-09-26T07:19:41.982Z,49.57
2018-09-26T07:22:10.132Z,49.80
2018-09-26T07:24:38.335Z,49.18
2018-09-26T07:27:07.298Z,50.42
2018-09-26T07:29:35.687Z,49.23
2018-09-26T07:32:03.913Z,48.58
2018-09-26T07:34:38.993Z,48.80
2018-09-26T07:37:07.807Z,47.84
2018-09-26T07:39:36.943Z,48.32
2018-09-26T07:42:05.303Z,47.18
2018-09-26T07:44:33.840Z,47.75
2018-09-26T07:47:02.054Z,48.42
2018-09-26T07:49:30.267Z,46.30
2018-09-26T07:51:58.549Z,47.03
2018-09-26T07:54:28.105Z,46.91
2018-09-26T07:56:56.800Z,44.80
2018-09-26T07:59:26.346Z,45.35
2018-09-26T08:01:55.236Z,43.85
2018-09-26T08:04:24.686Z,42.90
2018-09-26T08:06:54.216Z,43.05
2018-09-26T08:09:22.315Z,42.58
2018-09-26T08:11:50.581Z,40.00
2018-09-26T08:14:18.851Z,40.86
2018-09-26T08:16:47.046Z,39.13
2018-09-26T08:19:15.428Z,39.33
2018-09-26T08:21:43.780Z,39.83
2018-09-26T08:24:12.091Z,40.49
2018-09-26T08:26:40.349Z,38.85
2018-09-26T08:29:08.757Z,40.65
2018-09-26T08:31:36.929Z,39.79
2018-09-26T08:34:05.143Z,39.31
2018-09-26T08:36:33.224Z,40.44
2018-09-26T08:39:01.444Z,39.95
2018-09-26T08:41:29.666Z,38.70
2018-09-26T08:43:57.869Z,39.19
2018-09-26T08:46:26.215Z,38.90
2018-09-26T08:48:54.365Z,38.92
2018-09-26T08:51:22.555Z,41.68
2018-09-26T08:53:51.152Z,40.48
2018-09-26T08:56:19.980Z,38.55
2018-09-26T08:58:48.222Z,37.90
2018-09-26T09:01:21.969Z,38.87
2018-09-26T09:03:50.177Z,39.31
2018-09-26T09:06:18.606Z,37.56
2018-09-26T09:08:46.698Z,37.13
2018-09-26T09:11:14.839Z,35.85
2018-09-26T09:13:43.057Z,38.19
2018-09-26T09:16:11.226Z,39.26
2018-09-26T09:18:39.539Z,40.59
2018-09-26T09:21:07.801Z,41.22
2018-09-26T09:23:36.161Z,39.63
2018-09-26T09:26:04.622Z,40.34
2018-09-26T09:28:33.245Z,40.68
2018-09-26T09:31:01.974Z,40.68
2018-09-26T09:33:30.398Z,38.75
2018-09-26T09:35:59.707Z,38.63
2018-09-26T09:38:28.045Z,38.08
2018-09-26T09:40:56.565Z,35.59
2018-09-26T09:43:25.077Z,36.14
2018-09-26T09:45:53.367Z,36.84
2018-09-26T09:48:21.578Z,37.58
2018-09-26T09:50:49.945Z,37.85
2018-09-26T09:53:18.861Z,37.04
2018-09-26T09:55:49.238Z,36.70
2018-09-26T09:58:17.535Z,36.81
2018-09-26T10:00:51.395Z,36.92
2018-09-26T10:03:19.621Z,36.02
2018-09-26T10:05:47.980Z,37.33
2018-09-26T10:08:16.378Z,39.94
2018-09-26T10:10:44.708Z,40.58
2018-09-26T10:13:13.079Z,40.10
2018-09-26T10:15:41.303Z,40.04
2018-09-26T10:18:09.660Z,41.07
2018-09-26T10:20:38.033Z,39.86
2018-09-26T10:23:07.647Z,39.14
2018-09-26T10:25:40.809Z,39.91
2018-09-26T10:28:09.531Z,38.87
2018-09-26T10:30:37.797Z,39.69
2018-09-26T10:33:06.192Z,39.45
2018-09-26T10:35:34.485Z,38.12
2018-09-26T10:38:02.762Z,38.40
2018-09-26T10:40:31.148Z,39.14
2018-09-26T10:42:59.776Z,39.21
2018-09-26T10:45:28.325Z,39.64
2018-09-26T10:47:57.010Z,39.59
2018-09-26T10:50:25.427Z,38.66
2018-09-26T10:52:53.947Z,38.57
2018-09-26T10:55:22.548Z,39.01
2018-09-26T10:57:51.160Z,38.51
2018-09-26T11:00:19.534Z,39.16
2018-09-26T11:02:47.740Z,39.19
2018-09-26T11:05:16.093Z,38.01
2018-09-26T11:07:44.460Z,36.22
2018-09-26T11:10:12.727Z,35.02
2018-09-26T11:12:41.129Z,34.06
2018-09-26T11:15:09.485Z,33.25
2018-09-26T11:17:38.016Z,33.67
2018-09-26T11:20:06.691Z,35.14
2018-09-26T11:22:35.107Z,36.37
2018-09-26T11:25:03.541Z,36.88
2018-09-26T11:27:31.916Z,36.72
2018-09-26T11:30:00.325Z,36.15
2018-09-26T11:32:28.636Z,35.56
2018-09-26T11:34:57.289Z,35.72
2018-09-26T11:37:25.707Z,35.19
2018-09-26T11:39:54.106Z,34.52
2018-09-26T11:42:22.375Z,34.99
2018-09-26T11:44:50.789Z,34.26
2018-09-26T11:47:19.049Z,31.92
2018-09-26T11:49:47.397Z,32.18
2018-09-26T11:52:15.849Z,32.96
2018-09-26T11:54:44.465Z,34.27
2018-09-26T11:57:12.926Z,36.13
2018-09-26T11:59:41.298Z,37.13
2018-09-26T12:02:09.677Z,37.07
2018-09-26T12:04:38.024Z,37.44
2018-09-26T12:07:06.442Z,37.11
2018-09-26T12:09:34.947Z,37.29
2018-09-26T12:12:03.784Z,37.41
2018-09-26T12:14:32.140Z,35.09
2018-09-26T12:17:00.519Z,36.69
2018-09-26T12:19:29.027Z,38.84
2018-09-26T12:21:57.616Z,38.04
2018-09-26T12:24:26.000Z,39.13
2018-09-26T12:26:54.418Z,38.20
2018-09-26T12:29:22.750Z,36.75
2018-09-26T12:31:51.052Z,36.32
2018-09-26T12:34:19.259Z,36.62
2018-09-26T12:36:47.581Z,36.69
2018-09-26T12:39:15.765Z,35.60
2018-09-26T12:41:43.960Z,35.17
2018-09-26T12:44:12.696Z,37.36
2018-09-26T12:46:43.264Z,37.53
2018-09-26T12:49:11.819Z,37.24
2018-09-26T12:51:39.947Z,36.84
2018-09-26T12:54:09.686Z,36.16
2018-09-26T12:56:39.211Z,36.23
2018-09-26T12:59:08.013Z,35.46
2018-09-26T13:01:36.605Z,35.32
2018-09-26T13:04:04.907Z,36.72
2018-09-26T13:06:33.136Z,36.09
2018-09-26T13:09:03.103Z,36.55
2018-09-26T13:11:32.924Z,35.75
2018-09-26T13:14:03.506Z,36.49
2018-09-26T13:16:32.800Z,36.32
2018-09-26T13:19:01.022Z,37.17
2018-09-26T13:21:29.233Z,37.13
2018-09-26T13:23:57.546Z,37.58
2018-09-26T13:26:26.455Z,37.36
2018-09-26T13:28:54.793Z,36.44
2018-09-26T13:31:22.868Z,35.94
2018-09-26T13:33:51.108Z,35.81
2018-09-26T13:36:19.372Z,37.73
2018-09-26T13:38:47.654Z,39.38
2018-09-26T13:41:15.822Z,38.79
2018-09-26T13:43:43.919Z,38.35
2018-09-26T13:46:12.206Z,38.18
2018-09-26T13:48:40.474Z,38.70
2018-09-26T13:51:09.081Z,38.10
2018-09-26T13:53:37.447Z,36.99
2018-09-26T13:56:06.174Z,37.49
2018-09-26T13:58:34.703Z,38.39
2018-09-26T14:01:03.383Z,39.79
2018-09-26T14:03:31.568Z,38.85
2018-09-26T14:05:59.764Z,39.50
2018-09-26T14:08:28.316Z,39.00
2018-09-26T14:10:56.561Z,39.90
2018-09-26T14:13:24.972Z,39.42
2018-09-26T14:15:53.238Z,40.12
2018-09-26T14:18:21.372Z,39.66
2018-09-26T14:20:49.665Z,39.25
2018-09-26T14:23:17.988Z,39.17
2018-09-26T14:25:46.007Z,39.36
2018-09-26T14:28:14.302Z,39.63
2018-09-26T14:30:42.676Z,39.71
2018-09-26T14:33:10.768Z,40.35
2018-09-26T14:35:39.082Z,40.22
2018-09-26T14:38:07.488Z,40.00
2018-09-26T14:40:35.991Z,40.91
2018-09-26T14:43:04.351Z,40.95
2018-09-26T14:45:32.587Z,41.02
2018-09-26T14:48:00.783Z,40.92
2018-09-26T14:50:28.972Z,40.60
2018-09-26T14:52:57.272Z,40.64
2018-09-26T14:55:25.587Z,40.66
2018-09-26T14:57:53.927Z,40.83
2018-09-26T15:00:22.108Z,41.04
2018-09-26T15:02:50.540Z,40.60
2018-09-26T15:05:18.695Z,40.88
2018-09-26T15:07:46.945Z,40.24
2018-09-26T15:10:15.134Z,41.01
2018-09-26T15:12:43.486Z,41.71
2018-09-26T15:15:11.678Z,42.55
2018-09-26T15:17:39.917Z,43.14
2018-09-26T15:20:08.249Z,43.58
2018-09-26T15:22:36.473Z,44.17
2018-09-26T15:25:04.736Z,43.84
2018-09-26T15:27:33.151Z,44.29
2018-09-26T15:30:01.525Z,44.26
2018-09-26T15:32:29.840Z,44.01
2018-09-26T15:34:58.184Z,44.51
2018-09-26T15:37:26.317Z,44.04
2018-09-26T15:39:54.505Z,44.03
2018-09-26T15:42:23.284Z,44.26
2018-09-26T15:44:51.348Z,43.87
2018-09-26T15:47:19.719Z,43.34
2018-09-26T15:49:47.878Z,44.15
2018-09-26T15:52:16.264Z,43.53
2018-09-26T15:54:44.439Z,43.92
2018-09-26T15:57:12.595Z,43.41
2018-09-26T15:59:40.841Z,44.66
2018-09-26T16:02:09.255Z,44.49
2018-09-26T16:04:37.370Z,44.83
2018-09-26T16:07:05.641Z,44.61
2018-09-26T16:09:33.865Z,45.44
2018-09-26T16:12:03.956Z,45.58
2018-09-26T16:14:33.649Z,45.74
2018-09-26T16:17:02.645Z,46.10
2018-09-26T16:19:30.932Z,46.45
2018-09-26T16:21:59.449Z,46.56
2018-09-26T16:24:28.306Z,46.55
2018-09-26T16:26:56.622Z,47.12
2018-09-26T16:29:24.859Z,47.12
2018-09-26T16:31:52.865Z,47.59
2018-09-26T16:34:21.045Z,46.71
2018-09-26T16:36:49.197Z,46.56
2018-09-26T16:39:17.474Z,48.12
2018-09-26T16:41:45.615Z,47.25
2018-09-26T16:44:13.818Z,48.17
2018-09-26T16:46:41.976Z,48.28
2018-09-26T16:49:10.201Z,48.57
2018-09-26T16:51:38.399Z,49.23
2018-09-26T16:54:06.671Z,48.67
2018-09-26T16:56:34.924Z,49.12
2018-09-26T16:59:03.088Z,50.13
2018-09-26T17:01:31.362Z,49.64
2018-09-26T17:03:59.439Z,50.13
2018-09-26T17:06:27.818Z,49.88
2018-09-26T17:08:56.724Z,49.11
2018-09-26T17:11:24.913Z,49.33
2018-09-26T17:13:53.245Z,49.17
2018-09-26T17:16:22.153Z,49.43
2018-09-26T17:18:50.564Z,49.84
2018-09-26T17:21:18.783Z,49.96
2018-09-26T17:23:47.336Z,49.62
2018-09-26T17:26:15.901Z,49.91
2018-09-26T17:28:44.520Z,50.54
2018-09-26T17:31:13.309Z,50.49
2018-09-26T17:33:41.768Z,51.24
2018-09-26T17:36:10.181Z,52.16
2018-09-26T17:38:38.702Z,53.95
2018-09-26T17:41:07.237Z,54.27
2018-09-26T17:43:35.453Z,55.59
2018-09-26T17:46:04.028Z,56.85
2018-09-26T17:48:32.316Z,56.97
2018-09-26T17:51:01.145Z,58.42
2018-09-26T17:53:29.441Z,58.14
2018-09-26T17:55:57.856Z,59.03
2018-09-26T17:58:26.186Z,59.41
2018-09-26T18:00:54.542Z,59.28
2018-09-26T18:03:22.913Z,59.09
2018-09-26T18:05:51.096Z,60.43
2018-09-26T18:08:19.348Z,60.48
2018-09-26T18:10:47.678Z,60.06
2018-09-26T18:13:15.824Z,59.98
2018-09-26T18:15:43.918Z,60.84
2018-09-26T18:18:12.386Z,61.29
2018-09-26T18:20:40.612Z,61.94
2018-09-26T18:23:08.981Z,62.49
2018-09-26T18:25:37.327Z,62.63
2018-09-26T18:28:05.627Z,62.80
2018-09-26T18:30:34.010Z,63.25
2018-09-26T18:33:02.367Z,62.03
2018-09-26T18:35:30.841Z,63.29
2018-09-26T18:37:59.110Z,64.06
2018-09-26T18:40:27.519Z,63.79
2018-09-26T18:42:56.025Z,64.37
2018-09-26T18:45:24.772Z,63.91
2018-09-26T18:47:53.597Z,63.80
2018-09-26T18:50:22.553Z,64.45
2018-09-26T18:52:51.795Z,64.65
2018-09-26T18:55:20.911Z,64.88
2018-09-26T18:57:49.390Z,63.89
2018-09-26T19:00:18.800Z,63.91
2018-09-26T19:02:47.703Z,64.48
2018-09-26T19:05:16.102Z,64.72
2018-09-26T19:07:44.757Z,64.82
2018-09-26T19:10:12.922Z,65.48
2018-09-26T19:12:41.305Z,64.67
2018-09-26T19:15:09.720Z,65.25
2018-09-26T19:17:37.959Z,66.01
2018-09-26T19:20:06.278Z,65.50
2018-09-26T19:22:34.793Z,65.61
2018-09-26T19:25:02.866Z,65.90
2018-09-26T19:27:31.346Z,65.59
2018-09-26T19:29:59.688Z,65.74
2018-09-26T19:32:27.868Z,64.60
2018-09-26T19:34:56.264Z,64.43
2018-09-26T19:37:24.729Z,64.75
2018-09-26T19:39:53.461Z,65.14
2018-09-26T19:42:21.929Z,64.70
2018-09-26T19:44:50.397Z,65.44
2018-09-26T19:47:18.895Z,65.31
2018-09-26T19:49:47.230Z,65.43
2018-09-26T19:52:15.739Z,65.81
2018-09-26T19:54:44.192Z,65.92
2018-09-26T19:57:12.590Z,66.88
2018-09-26T19:59:41.066Z,66.94
2018-09-26T20:02:09.786Z,66.97
2018-09-26T20:04:38.296Z,66.92
2018-09-26T20:07:06.867Z,66.77
2018-09-26T20:09:35.078Z,66.55
2018-09-26T20:12:03.436Z,67.08
2018-09-26T20:14:31.762Z,67.36
2018-09-26T20:17:00.066Z,67.69
2018-09-26T20:19:28.362Z,67.02
2018-09-26T20:21:56.791Z,66.34
2018-09-26T20:24:25.313Z,65.78
2018-09-26T20:26:53.921Z,67.05
2018-09-26T20:29:24.592Z,67.82
2018-09-26T20:31:52.871Z,67.78
2018-09-26T20:34:22.690Z,68.17
2018-09-26T20:36:51.781Z,69.15
2018-09-26T20:39:20.053Z,68.46
2018-09-26T20:41:48.296Z,69.04
2018-09-26T20:44:16.824Z,69.21
2018-09-26T20:46:45.675Z,69.31
2018-09-26T20:49:14.235Z,68.80
2018-09-26T20:51:43.688Z,69.07
2018-09-26T20:54:11.969Z,69.54
2018-09-26T20:56:40.335Z,69.97
2018-09-26T20:59:08.966Z,70.15
2018-09-26T21:01:37.859Z,70.63
2018-09-26T21:04:06.315Z,71.11
2018-09-26T21:06:34.732Z,71.60
2018-09-26T21:09:04.505Z,70.49
2018-09-26T21:11:32.945Z,71.06
2018-09-26T21:14:01.390Z,71.88
2018-09-26T21:16:29.985Z,72.16
2018-09-26T21:18:58.442Z,71.63
2018-09-26T21:21:26.723Z,71.92
2018-09-26T21:23:55.154Z,71.79
2018-09-26T21:26:23.507Z,71.84
2018-09-26T21:28:51.893Z,72.89
2018-09-26T21:31:20.327Z,72.37
2018-09-26T21:33:48.882Z,72.40
2018-09-26T21:36:17.258Z,72.02
2018-09-26T21:38:45.571Z,71.86
2018-09-26T21:41:14.069Z,71.59
2018-09-26T21:43:42.794Z,72.12
2018-09-26T21:46:11.933Z,72.29
2018-09-26T21:48:40.372Z,72.38
2018-09-26T21:51:08.615Z,70.87
2018-09-26T21:53:36.982Z,71.70
2018-09-26T21:56:05.274Z,72.27
2018-09-26T21:58:33.667Z,72.61
2018-09-26T22:01:04.137Z,72.38
2018-09-26T22:03:33.301Z,72.80
2018-09-26T22:06:01.665Z,72.76
2018-09-26T22:08:29.935Z,74.11
2018-09-26T22:10:58.275Z,73.76
2018-09-26T22:13:26.775Z,73.90
2018-09-26T22:15:55.164Z,73.94
2018-09-26T22:18:23.580Z,74.20
2018-09-26T22:20:51.910Z,74.74
2018-09-26T22:23:20.261Z,74.38
2018-09-26T22:25:48.602Z,73.86
2018-09-26T22:28:16.928Z,74.29
2018-09-26T22:30:45.094Z,74.41
2018-09-26T22:33:13.250Z,74.92
2018-09-26T22:35:41.463Z,74.87
2018-09-26T22:38:10.328Z,75.76
2018-09-26T22:40:38.462Z,75.87
2018-09-26T22:43:06.638Z,75.65
2018-09-26T22:45:34.785Z,76.09
2018-09-26T22:48:03.176Z,76.88
2018-09-26T22:50:31.391Z,77.44
2018-09-26T22:52:59.565Z,77.55
2018-09-26T22:55:27.719Z,77.08
2018-09-26T22:57:55.933Z,77.02
2018-09-26T23:00:24.176Z,76.88
2018-09-26T23:02:52.337Z,77.33
2018-09-26T23:05:20.881Z,78.13
2018-09-26T23:07:49.480Z,78.80
2018-09-26T23:10:17.663Z,77.68
2018-09-26T23:12:45.775Z,77.61
2018-09-26T23:15:13.818Z,78.82
2018-09-26T23:17:41.884Z,77.92
2018-09-26T23:20:10.033Z,78.41
2018-09-26T23:22:38.107Z,78.28
2018-09-26T23:25:06.351Z,79.33
2018-09-26T23:27:34.463Z,79.83
2018-09-26T23:30:02.502Z,78.79
2018-09-26T23:32:30.644Z,79.11
2018-09-26T23:34:58.657Z,79.23
2018-09-26T23:37:26.703Z,79.58
2018-09-26T23:39:54.731Z,80.16
2018-09-26T23:42:22.713Z,79.82
2018-09-26T23:44:50.789Z,80.39
2018-09-26T23:47:18.939Z,80.25
2018-09-26T23:49:46.938Z,81.02
2018-09-26T23:52:15.066Z,80.22
2018-09-26T23:54:43.224Z,80.89
2018-09-26T23:57:11.315Z,80.18
2018-09-26T23:59:39.375Z,80.52
